sensor_id;sensor_type;location;lat;lon;timestamp;temperature;humidity
24468;DHT22;12634;50.852;5.676;2023-08-30T00:01:28;13.40;99.90
24468;DHT22;12634;50.852;5.676;2023-08-30T00:03:55;13.50;99.90
24468;DHT22;12634;50.852;5.676;2023-08-30T00:06:23;13.50;99.90
24468;DHT22;12634;50.852;5.676;2023-08-30T00:08:50;13.50;99.90
24468;DHT22;12634;50.852;5.676;2023-08-30T00:11:18;13.50;99.90
24468;DHT22;12634;50.852;5.676;2023-08-30T00:13:45;13.40;99.90
24468;DHT22;12634;50.852;5.676;2023-08-30T00:16:15;13.40;99.90
24468;DHT22;12634;50.852;5.676;2023-08-30T00:18:43;13.30;99.90
24468;DHT22;12634;50.852;5.676;2023-08-30T00:21:11;13.20;99.90
24468;DHT22;12634;50.852;5.676;2023-08-30T00:23:38;13.30;99.90
24468;DHT22;12634;50.852;5.676;2023-08-30T00:26:05;13.40;99.90
24468;DHT22;12634;50.852;5.676;2023-08-30T00:28:32;13.40;99.90
24468;DHT22;12634;50.852;5.676;2023-08-30T00:30:59;13.40;99.90
24468;DHT22;12634;50.852;5.676;2023-08-30T00:33:29;13.40;99.90
24468;DHT22;12634;50.852;5.676;2023-08-30T00:35:57;13.40;99.90
24468;DHT22;12634;50.852;5.676;2023-08-30T00:38:25;13.30;99.90
24468;DHT22;12634;50.852;5.676;2023-08-30T00:40:53;13.40;99.90
24468;DHT22;12634;50.852;5.676;2023-08-30T00:43:20;13.50;99.90
24468;DHT22;12634;50.852;5.676;2023-08-30T00:45:47;13.60;99.90
24468;DHT22;12634;50.852;5.676;2023-08-30T00:48:16;13.60;99.90
24468;DHT22;12634;50.852;5.676;2023-08-30T00:50:46;13.70;99.90
24468;DHT22;12634;50.852;5.676;2023-08-30T00:53:14;13.80;99.90
24468;DHT22;12634;50.852;5.676;2023-08-30T00:55:42;13.90;99.90
24468;DHT22;12634;50.852;5.676;2023-08-30T00:58:10;13.90;99.90
24468;DHT22;12634;50.852;5.676;2023-08-30T01:00:37;13.90;99.90
24468;DHT22;12634;50.852;5.676;2023-08-30T01:03:05;14.00;99.90
24468;DHT22;12634;50.852;5.676;2023-08-30T01:05:33;13.90;99.90
24468;DHT22;12634;50.852;5.676;2023-08-30T01:08:02;14.00;99.90
24468;DHT22;12634;50.852;5.676;2023-08-30T01:10:38;13.90;99.90
24468;DHT22;12634;50.852;5.676;2023-08-30T01:13:10;14.00;99.90
24468;DHT22;12634;50.852;5.676;2023-08-30T01:15:41;14.00;99.90
24468;DHT22;12634;50.852;5.676;2023-08-30T01:18:10;14.00;99.90
24468;DHT22;12634;50.852;5.676;2023-08-30T01:20:39;14.00;99.90
24468;DHT22;12634;50.852;5.676;2023-08-30T01:23:22;14.00;99.90
24468;DHT22;12634;50.852;5.676;2023-08-30T01:25:57;14.00;99.90
24468;DHT22;12634;50.852;5.676;2023-08-30T01:28:31;14.00;99.90
24468;DHT22;12634;50.852;5.676;2023-08-30T01:31:00;14.00;99.90
24468;DHT22;12634;50.852;5.676;2023-08-30T01:33:28;14.10;99.90
24468;DHT22;12634;50.852;5.676;2023-08-30T01:35:59;14.10;99.90
24468;DHT22;12634;50.852;5.676;2023-08-30T01:38:27;14.10;99.90
24468;DHT22;12634;50.852;5.676;2023-08-30T01:40:57;14.20;99.90
24468;DHT22;12634;50.852;5.676;2023-08-30T01:43:26;14.10;99.90
24468;DHT22;12634;50.852;5.676;2023-08-30T01:45:56;14.20;99.90
24468;DHT22;12634;50.852;5.676;2023-08-30T01:48:25;14.20;99.90
24468;DHT22;12634;50.852;5.676;2023-08-30T01:50:54;14.20;99.90
24468;DHT22;12634;50.852;5.676;2023-08-30T01:53:24;14.20;99.90
24468;DHT22;12634;50.852;5.676;2023-08-30T01:55:52;14.30;99.90
24468;DHT22;12634;50.852;5.676;2023-08-30T01:58:20;14.30;99.90
24468;DHT22;12634;50.852;5.676;2023-08-30T02:00:47;14.30;99.90
24468;DHT22;12634;50.852;5.676;2023-08-30T02:03:15;14.40;99.90
24468;DHT22;12634;50.852;5.676;2023-08-30T02:05:54;14.40;99.90
24468;DHT22;12634;50.852;5.676;2023-08-30T02:08:28;14.40;99.90
24468;DHT22;12634;50.852;5.676;2023-08-30T02:11:02;14.40;99.90
24468;DHT22;12634;50.852;5.676;2023-08-30T02:13:31;14.30;99.90
24468;DHT22;12634;50.852;5.676;2023-08-30T02:16:00;14.30;99.90
24468;DHT22;12634;50.852;5.676;2023-08-30T02:18:29;14.30;99.90
24468;DHT22;12634;50.852;5.676;2023-08-30T02:20:56;14.30;99.90
24468;DHT22;12634;50.852;5.676;2023-08-30T02:23:24;14.20;99.90
24468;DHT22;12634;50.852;5.676;2023-08-30T02:25:51;14.30;99.90
24468;DHT22;12634;50.852;5.676;2023-08-30T02:28:18;14.30;99.90
24468;DHT22;12634;50.852;5.676;2023-08-30T02:30:46;14.30;99.90
24468;DHT22;12634;50.852;5.676;2023-08-30T02:33:13;14.30;99.90
24468;DHT22;12634;50.852;5.676;2023-08-30T02:35:42;14.30;99.90
24468;DHT22;12634;50.852;5.676;2023-08-30T02:38:09;14.30;99.90
24468;DHT22;12634;50.852;5.676;2023-08-30T02:40:36;14.30;99.90
24468;DHT22;12634;50.852;5.676;2023-08-30T02:43:03;14.30;99.90
24468;DHT22;12634;50.852;5.676;2023-08-30T02:45:31;14.20;99.90
24468;DHT22;12634;50.852;5.676;2023-08-30T02:47:58;14.20;99.90
24468;DHT22;12634;50.852;5.676;2023-08-30T02:50:25;14.20;99.90
24468;DHT22;12634;50.852;5.676;2023-08-30T02:52:54;14.20;99.90
24468;DHT22;12634;50.852;5.676;2023-08-30T02:55:21;14.30;99.90
24468;DHT22;12634;50.852;5.676;2023-08-30T02:57:48;14.30;99.90
24468;DHT22;12634;50.852;5.676;2023-08-30T03:00:16;14.30;99.90
24468;DHT22;12634;50.852;5.676;2023-08-30T03:02:43;14.30;99.90
24468;DHT22;12634;50.852;5.676;2023-08-30T03:05:10;14.30;99.90
24468;DHT22;12634;50.852;5.676;2023-08-30T03:07:37;14.20;99.90
24468;DHT22;12634;50.852;5.676;2023-08-30T03:10:07;14.30;99.90
24468;DHT22;12634;50.852;5.676;2023-08-30T03:12:34;14.30;99.90
24468;DHT22;12634;50.852;5.676;2023-08-30T03:15:01;14.20;99.90
24468;DHT22;12634;50.852;5.676;2023-08-30T03:17:30;14.30;99.90
24468;DHT22;12634;50.852;5.676;2023-08-30T03:19:57;14.20;99.90
24468;DHT22;12634;50.852;5.676;2023-08-30T03:22:24;14.20;99.90
24468;DHT22;12634;50.852;5.676;2023-08-30T03:24:51;14.20;99.90
24468;DHT22;12634;50.852;5.676;2023-08-30T03:27:20;14.20;99.90
24468;DHT22;12634;50.852;5.676;2023-08-30T03:29:47;14.20;99.90
24468;DHT22;12634;50.852;5.676;2023-08-30T03:32:16;14.20;99.90
24468;DHT22;12634;50.852;5.676;2023-08-30T03:34:44;14.20;99.90
24468;DHT22;12634;50.852;5.676;2023-08-30T03:37:12;14.20;99.90
24468;DHT22;12634;50.852;5.676;2023-08-30T03:39:40;14.20;99.90
24468;DHT22;12634;50.852;5.676;2023-08-30T03:42:07;14.30;99.90
24468;DHT22;12634;50.852;5.676;2023-08-30T03:44:37;14.30;99.90
24468;DHT22;12634;50.852;5.676;2023-08-30T03:47:05;14.30;99.90
24468;DHT22;12634;50.852;5.676;2023-08-30T03:49:33;14.30;99.90
24468;DHT22;12634;50.852;5.676;2023-08-30T03:52:00;14.30;99.90
24468;DHT22;12634;50.852;5.676;2023-08-30T03:54:27;14.20;99.90
24468;DHT22;12634;50.852;5.676;2023-08-30T03:56:54;14.20;99.90
24468;DHT22;12634;50.852;5.676;2023-08-30T03:59:21;14.20;99.90
24468;DHT22;12634;50.852;5.676;2023-08-30T04:01:52;14.20;99.90
24468;DHT22;12634;50.852;5.676;2023-08-30T04:04:19;14.20;99.90
24468;DHT22;12634;50.852;5.676;2023-08-30T04:06:46;14.20;99.90
24468;DHT22;12634;50.852;5.676;2023-08-30T04:09:14;14.30;99.90
24468;DHT22;12634;50.852;5.676;2023-08-30T04:11:41;14.30;99.90
24468;DHT22;12634;50.852;5.676;2023-08-30T04:14:09;14.20;99.90
24468;DHT22;12634;50.852;5.676;2023-08-30T04:16:36;14.30;99.90
24468;DHT22;12634;50.852;5.676;2023-08-30T04:19:04;14.20;99.90
24468;DHT22;12634;50.852;5.676;2023-08-30T04:21:32;14.30;99.90
24468;DHT22;12634;50.852;5.676;2023-08-30T04:23:59;14.30;99.90
24468;DHT22;12634;50.852;5.676;2023-08-30T04:26:26;14.30;99.90
24468;DHT22;12634;50.852;5.676;2023-08-30T04:28:53;14.30;99.90
24468;DHT22;12634;50.852;5.676;2023-08-30T04:31:20;14.30;99.90
24468;DHT22;12634;50.852;5.676;2023-08-30T04:33:47;14.30;99.90
24468;DHT22;12634;50.852;5.676;2023-08-30T04:36:19;14.30;99.90
24468;DHT22;12634;50.852;5.676;2023-08-30T04:38:46;14.30;99.90
24468;DHT22;12634;50.852;5.676;2023-08-30T04:41:14;14.30;99.90
24468;DHT22;12634;50.852;5.676;2023-08-30T04:43:41;14.30;99.90
24468;DHT22;12634;50.852;5.676;2023-08-30T04:46:09;14.30;99.90
24468;DHT22;12634;50.852;5.676;2023-08-30T04:48:36;14.30;99.90
24468;DHT22;12634;50.852;5.676;2023-08-30T04:51:04;14.30;99.90
24468;DHT22;12634;50.852;5.676;2023-08-30T04:53:33;14.40;99.90
24468;DHT22;12634;50.852;5.676;2023-08-30T04:56:00;14.30;99.90
24468;DHT22;12634;50.852;5.676;2023-08-30T04:58:28;14.30;99.90
24468;DHT22;12634;50.852;5.676;2023-08-30T05:00:56;14.30;99.90
24468;DHT22;12634;50.852;5.676;2023-08-30T05:03:23;14.30;99.90
24468;DHT22;12634;50.852;5.676;2023-08-30T05:05:50;14.30;99.90
24468;DHT22;12634;50.852;5.676;2023-08-30T05:08:18;14.30;99.90
24468;DHT22;12634;50.852;5.676;2023-08-30T05:10:46;14.30;99.90
24468;DHT22;12634;50.852;5.676;2023-08-30T05:13:16;14.20;99.90
24468;DHT22;12634;50.852;5.676;2023-08-30T05:15:43;14.30;99.90
24468;DHT22;12634;50.852;5.676;2023-08-30T05:18:10;14.20;99.90
24468;DHT22;12634;50.852;5.676;2023-08-30T05:20:38;14.30;99.90
24468;DHT22;12634;50.852;5.676;2023-08-30T05:23:05;14.30;99.90
24468;DHT22;12634;50.852;5.676;2023-08-30T05:25:32;14.30;99.90
24468;DHT22;12634;50.852;5.676;2023-08-30T05:28:00;14.30;99.90
24468;DHT22;12634;50.852;5.676;2023-08-30T05:30:28;14.30;99.90
24468;DHT22;12634;50.852;5.676;2023-08-30T05:32:55;14.30;99.90
24468;DHT22;12634;50.852;5.676;2023-08-30T05:35:22;14.30;99.90
24468;DHT22;12634;50.852;5.676;2023-08-30T05:37:49;14.40;99.90
24468;DHT22;12634;50.852;5.676;2023-08-30T05:40:17;14.50;99.90
24468;DHT22;12634;50.852;5.676;2023-08-30T05:42:44;14.50;99.90
24468;DHT22;12634;50.852;5.676;2023-08-30T05:45:13;14.50;99.90
24468;DHT22;12634;50.852;5.676;2023-08-30T05:47:40;14.60;99.90
24468;DHT22;12634;50.852;5.676;2023-08-30T05:50:08;14.60;99.90
24468;DHT22;12634;50.852;5.676;2023-08-30T05:52:36;14.60;99.90
24468;DHT22;12634;50.852;5.676;2023-08-30T05:55:07;14.60;99.90
24468;DHT22;12634;50.852;5.676;2023-08-30T05:57:35;14.70;99.90
24468;DHT22;12634;50.852;5.676;2023-08-30T06:00:03;14.60;99.90
24468;DHT22;12634;50.852;5.676;2023-08-30T06:02:32;14.70;99.90
24468;DHT22;12634;50.852;5.676;2023-08-30T06:05:00;14.70;99.90
24468;DHT22;12634;50.852;5.676;2023-08-30T06:07:28;14.80;99.90
24468;DHT22;12634;50.852;5.676;2023-08-30T06:09:55;14.80;99.90
24468;DHT22;12634;50.852;5.676;2023-08-30T06:12:22;14.90;99.90
24468;DHT22;12634;50.852;5.676;2023-08-30T06:14:51;15.10;99.90
24468;DHT22;12634;50.852;5.676;2023-08-30T06:17:19;15.10;99.90
24468;DHT22;12634;50.852;5.676;2023-08-30T06:19:48;15.20;99.90
24468;DHT22;12634;50.852;5.676;2023-08-30T06:22:15;15.30;99.90
24468;DHT22;12634;50.852;5.676;2023-08-30T06:24:42;15.20;99.90
24468;DHT22;12634;50.852;5.676;2023-08-30T06:27:09;15.20;99.90
24468;DHT22;12634;50.852;5.676;2023-08-30T06:29:37;15.20;99.90
24468;DHT22;12634;50.852;5.676;2023-08-30T06:32:04;15.30;99.90
24468;DHT22;12634;50.852;5.676;2023-08-30T06:34:32;15.50;99.90
24468;DHT22;12634;50.852;5.676;2023-08-30T06:37:00;15.50;99.90
24468;DHT22;12634;50.852;5.676;2023-08-30T06:39:32;15.50;99.90
24468;DHT22;12634;50.852;5.676;2023-08-30T06:42:01;15.50;99.90
24468;DHT22;12634;50.852;5.676;2023-08-30T06:44:28;15.50;99.90
24468;DHT22;12634;50.852;5.676;2023-08-30T06:46:56;15.80;99.90
24468;DHT22;12634;50.852;5.676;2023-08-30T06:49:23;15.90;99.90
24468;DHT22;12634;50.852;5.676;2023-08-30T06:51:50;16.10;99.90
24468;DHT22;12634;50.852;5.676;2023-08-30T06:54:19;16.10;99.90
24468;DHT22;12634;50.852;5.676;2023-08-30T06:56:57;16.00;99.90
24468;DHT22;12634;50.852;5.676;2023-08-30T06:59:24;16.00;99.90
24468;DHT22;12634;50.852;5.676;2023-08-30T07:01:51;16.00;99.90
24468;DHT22;12634;50.852;5.676;2023-08-30T07:04:19;16.00;99.90
24468;DHT22;12634;50.852;5.676;2023-08-30T07:06:46;15.80;99.90
24468;DHT22;12634;50.852;5.676;2023-08-30T07:09:13;15.70;99.90
24468;DHT22;12634;50.852;5.676;2023-08-30T07:11:43;15.60;99.90
24468;DHT22;12634;50.852;5.676;2023-08-30T07:14:11;15.60;99.90
24468;DHT22;12634;50.852;5.676;2023-08-30T07:16:40;15.70;99.90
24468;DHT22;12634;50.852;5.676;2023-08-30T07:19:07;15.70;99.90
24468;DHT22;12634;50.852;5.676;2023-08-30T07:21:35;15.70;99.90
24468;DHT22;12634;50.852;5.676;2023-08-30T07:24:06;15.80;99.90
24468;DHT22;12634;50.852;5.676;2023-08-30T07:26:33;15.80;99.90
24468;DHT22;12634;50.852;5.676;2023-08-30T07:29:03;15.90;99.90
24468;DHT22;12634;50.852;5.676;2023-08-30T07:31:31;16.20;99.90
24468;DHT22;12634;50.852;5.676;2023-08-30T07:33:59;16.30;99.90
24468;DHT22;12634;50.852;5.676;2023-08-30T07:36:26;16.10;99.90
24468;DHT22;12634;50.852;5.676;2023-08-30T07:38:54;16.20;99.90
24468;DHT22;12634;50.852;5.676;2023-08-30T07:41:21;16.20;99.90
24468;DHT22;12634;50.852;5.676;2023-08-30T07:43:48;16.10;99.90
24468;DHT22;12634;50.852;5.676;2023-08-30T07:46:17;16.10;99.90
24468;DHT22;12634;50.852;5.676;2023-08-30T07:48:44;16.00;99.90
24468;DHT22;12634;50.852;5.676;2023-08-30T07:51:11;15.90;99.90
24468;DHT22;12634;50.852;5.676;2023-08-30T07:53:38;15.90;99.90
24468;DHT22;12634;50.852;5.676;2023-08-30T07:56:07;15.80;99.90
24468;DHT22;12634;50.852;5.676;2023-08-30T07:58:36;16.00;99.90
24468;DHT22;12634;50.852;5.676;2023-08-30T08:01:04;16.00;99.90
24468;DHT22;12634;50.852;5.676;2023-08-30T08:03:33;16.00;99.90
24468;DHT22;12634;50.852;5.676;2023-08-30T08:06:00;16.00;99.90
24468;DHT22;12634;50.852;5.676;2023-08-30T08:08:27;16.00;99.90
24468;DHT22;12634;50.852;5.676;2023-08-30T08:10:55;16.00;99.90
24468;DHT22;12634;50.852;5.676;2023-08-30T08:13:22;16.00;99.90
24468;DHT22;12634;50.852;5.676;2023-08-30T08:15:49;15.90;99.90
24468;DHT22;12634;50.852;5.676;2023-08-30T08:18:17;15.90;99.90
24468;DHT22;12634;50.852;5.676;2023-08-30T08:20:45;16.00;99.90
24468;DHT22;12634;50.852;5.676;2023-08-30T08:23:12;16.20;99.90
24468;DHT22;12634;50.852;5.676;2023-08-30T08:25:40;16.40;99.90
24468;DHT22;12634;50.852;5.676;2023-08-30T08:28:07;16.60;99.90
24468;DHT22;12634;50.852;5.676;2023-08-30T08:30:36;17.20;99.90
24468;DHT22;12634;50.852;5.676;2023-08-30T08:33:03;17.30;99.90
24468;DHT22;12634;50.852;5.676;2023-08-30T08:35:31;17.30;99.90
24468;DHT22;12634;50.852;5.676;2023-08-30T08:37:59;17.30;99.90
24468;DHT22;12634;50.852;5.676;2023-08-30T08:40:27;17.00;99.90
24468;DHT22;12634;50.852;5.676;2023-08-30T08:42:54;17.00;99.90
24468;DHT22;12634;50.852;5.676;2023-08-30T08:45:22;17.00;99.90
24468;DHT22;12634;50.852;5.676;2023-08-30T08:47:50;16.90;99.90
24468;DHT22;12634;50.852;5.676;2023-08-30T08:50:18;16.80;99.90
24468;DHT22;12634;50.852;5.676;2023-08-30T08:52:45;16.80;99.90
24468;DHT22;12634;50.852;5.676;2023-08-30T08:55:15;16.70;99.90
24468;DHT22;12634;50.852;5.676;2023-08-30T08:57:43;16.60;99.90
24468;DHT22;12634;50.852;5.676;2023-08-30T09:00:12;16.30;99.90
24468;DHT22;12634;50.852;5.676;2023-08-30T09:02:40;16.00;99.90
24468;DHT22;12634;50.852;5.676;2023-08-30T09:05:09;15.80;99.90
24468;DHT22;12634;50.852;5.676;2023-08-30T09:07:37;15.50;99.90
24468;DHT22;12634;50.852;5.676;2023-08-30T09:10:05;15.20;99.90
24468;DHT22;12634;50.852;5.676;2023-08-30T09:12:34;15.00;99.90
24468;DHT22;12634;50.852;5.676;2023-08-30T09:15:03;14.90;99.90
24468;DHT22;12634;50.852;5.676;2023-08-30T09:17:36;14.80;99.90
24468;DHT22;12634;50.852;5.676;2023-08-30T09:20:08;14.80;99.90
24468;DHT22;12634;50.852;5.676;2023-08-30T09:22:39;14.70;99.90
24468;DHT22;12634;50.852;5.676;2023-08-30T09:25:08;14.70;99.90
24468;DHT22;12634;50.852;5.676;2023-08-30T09:27:37;14.70;99.90
24468;DHT22;12634;50.852;5.676;2023-08-30T09:30:08;14.80;99.90
24468;DHT22;12634;50.852;5.676;2023-08-30T09:32:40;14.70;99.90
24468;DHT22;12634;50.852;5.676;2023-08-30T09:35:09;14.80;99.90
24468;DHT22;12634;50.852;5.676;2023-08-30T09:37:36;14.70;99.90
24468;DHT22;12634;50.852;5.676;2023-08-30T09:40:04;14.80;99.90
24468;DHT22;12634;50.852;5.676;2023-08-30T09:42:31;14.90;99.90
24468;DHT22;12634;50.852;5.676;2023-08-30T09:45:00;14.90;99.90
24468;DHT22;12634;50.852;5.676;2023-08-30T09:47:29;15.00;99.90
24468;DHT22;12634;50.852;5.676;2023-08-30T09:49:58;15.10;99.90
24468;DHT22;12634;50.852;5.676;2023-08-30T09:52:29;15.10;99.90
24468;DHT22;12634;50.852;5.676;2023-08-30T09:54:57;15.10;99.90
24468;DHT22;12634;50.852;5.676;2023-08-30T09:57:26;15.10;99.90
24468;DHT22;12634;50.852;5.676;2023-08-30T09:59:54;15.20;99.90
24468;DHT22;12634;50.852;5.676;2023-08-30T10:02:24;15.20;99.90
24468;DHT22;12634;50.852;5.676;2023-08-30T10:04:52;15.20;99.90
24468;DHT22;12634;50.852;5.676;2023-08-30T10:07:20;15.30;99.90
24468;DHT22;12634;50.852;5.676;2023-08-30T10:09:49;15.40;99.90
24468;DHT22;12634;50.852;5.676;2023-08-30T10:12:20;15.30;99.90
24468;DHT22;12634;50.852;5.676;2023-08-30T10:14:48;15.30;99.90
24468;DHT22;12634;50.852;5.676;2023-08-30T10:17:18;15.40;99.90
24468;DHT22;12634;50.852;5.676;2023-08-30T10:19:49;15.40;99.90
24468;DHT22;12634;50.852;5.676;2023-08-30T10:22:18;15.30;99.90
24468;DHT22;12634;50.852;5.676;2023-08-30T10:24:48;15.30;99.90
24468;DHT22;12634;50.852;5.676;2023-08-30T10:27:17;15.40;99.90
24468;DHT22;12634;50.852;5.676;2023-08-30T10:29:46;15.50;99.90
24468;DHT22;12634;50.852;5.676;2023-08-30T10:32:19;15.60;99.90
24468;DHT22;12634;50.852;5.676;2023-08-30T10:34:50;15.60;99.90
24468;DHT22;12634;50.852;5.676;2023-08-30T10:37:22;15.50;99.90
24468;DHT22;12634;50.852;5.676;2023-08-30T10:39:50;15.40;99.90
24468;DHT22;12634;50.852;5.676;2023-08-30T10:42:22;15.40;99.90
24468;DHT22;12634;50.852;5.676;2023-08-30T10:44:51;15.50;99.90
24468;DHT22;12634;50.852;5.676;2023-08-30T10:47:19;15.50;99.90
24468;DHT22;12634;50.852;5.676;2023-08-30T10:49:49;15.50;99.90
24468;DHT22;12634;50.852;5.676;2023-08-30T10:52:16;15.60;99.90
24468;DHT22;12634;50.852;5.676;2023-08-30T10:54:43;15.60;99.90
24468;DHT22;12634;50.852;5.676;2023-08-30T10:57:15;15.50;99.90
24468;DHT22;12634;50.852;5.676;2023-08-30T11:00:04;15.60;99.90
24468;DHT22;12634;50.852;5.676;2023-08-30T11:02:33;15.60;99.90
24468;DHT22;12634;50.852;5.676;2023-08-30T11:05:02;15.60;99.90
24468;DHT22;12634;50.852;5.676;2023-08-30T11:07:30;15.70;99.90
24468;DHT22;12634;50.852;5.676;2023-08-30T11:09:58;15.60;99.90
24468;DHT22;12634;50.852;5.676;2023-08-30T11:12:25;15.50;99.90
24468;DHT22;12634;50.852;5.676;2023-08-30T11:14:54;15.50;99.90
24468;DHT22;12634;50.852;5.676;2023-08-30T11:17:21;15.40;99.90
24468;DHT22;12634;50.852;5.676;2023-08-30T11:19:50;15.50;99.90
